X  Zatvori METAR Podaci o vazduhoplovstvu     LYNI Nis Airport
Temperatura
22°C Temperatura
17°C Tačka Rose
73% Vlaga



Vetar
1 M/S
3 MPH
5 KM/H
3 KTS



130°
JI
Trenutna situacija

Vedro Vedro
Vazdušni pritisak 1018.92 (hPa) - 30.09 (inHg)
Vidljivost 6.2 (Milja) - 10 (km)
Aerodrom
Aerodromski kod. LYNI

Lokacija: Nis Airport
Udaljenost: 63 (km)

Metar:
LYNI 030530Z 13003KT 070V210 CAVOK 22/17 Q1019 NOSIG

Vreme: 03-07-2022 07:30 CEST